Time;durP1;ratioP1;P1;durP2;ratioP2;P2;SDS_P1;SDS_P2;PMS_P1;PMS_P2;Temp;Humidity;BMP_temperature;BMP_pressure;BME280_temperature;BME280_humidity;BME280_pressure;Samples;Min_cycle;Max_cycle;Signal;HPM_P1;HPM_P2
2021/10/11 00:04:42;;;;;;;44.85;28.35;;;;;;;9.74;81.79;102177.19;10350170;28;20071;-68
2021/10/11 00:09:38;;;;;;;45.85;28.50;;;;;;;9.80;81.52;102169.81;10347591;28;20097;-69
2021/10/11 00:14:35;;;;;;;43.42;29.30;;;;;;;9.85;81.29;102181.53;10350452;27;20518;-68
2021/10/11 00:19:35;;;;;;;41.08;28.92;;;;;;;9.96;80.84;102178.78;10365694;27;20079;-68
2021/10/11 00:24:32;;;;;;;45.63;29.17;;;;;;;10.07;80.24;102174.91;10356943;27;20154;-69
2021/10/11 00:29:28;;;;;;;44.95;29.52;;;;;;;10.01;80.10;102176.84;10369980;27;20559;-69
2021/10/11 00:34:25;;;;;;;44.75;27.67;;;;;;;10.02;80.45;102177.66;10368828;27;20138;-68
2021/10/11 00:39:22;;;;;;;44.33;28.98;;;;;;;9.99;79.86;102175.50;10360004;28;20045;-69
2021/10/11 00:44:18;;;;;;;46.90;29.20;;;;;;;10.04;80.57;102167.25;10354826;27;20075;-69
2021/10/11 00:49:15;;;;;;;49.92;31.48;;;;;;;10.06;80.00;102168.63;10346104;28;20065;-68
2021/10/11 00:54:12;;;;;;;55.65;34.50;;;;;;;10.03;81.63;102179.31;10343591;28;20097;-68
2021/10/11 00:59:09;;;;;;;53.42;33.95;;;;;;;10.07;82.10;102163.97;10357214;28;20869;-68
2021/10/11 01:09:11;;;;;;;58.05;34.63;;;;;;;10.03;83.63;102157.44;10791970;22;20680;-68
2021/10/11 01:14:08;;;;;;;58.70;36.53;;;;;;;9.98;84.08;102160.16;10256069;28;20080;-68
2021/10/11 01:19:05;;;;;;;54.67;34.63;;;;;;;9.94;85.64;102159.13;10254980;28;20045;-68
2021/10/11 01:24:02;;;;;;;56.47;36.33;;;;;;;9.94;86.22;102142.72;10246654;28;20569;-69
2021/10/11 01:28:58;;;;;;;64.47;38.53;;;;;;;9.82;87.46;102146.56;10252331;28;20080;-69
2021/10/11 01:33:55;;;;;;;60.78;38.88;;;;;;;9.87;88.35;102145.75;10258989;28;20072;-67
2021/10/11 01:38:56;;;;;;;50.47;34.88;;;;;;;9.97;88.68;102136.69;10261888;28;20080;-69
2021/10/11 01:43:52;;;;;;;70.75;42.70;;;;;;;9.98;88.75;102133.69;10254488;28;20502;-70
2021/10/11 01:48:49;;;;;;;57.60;38.25;;;;;;;9.99;89.34;102134.50;10252541;28;20056;-70
2021/10/11 01:53:45;;;;;;;61.08;41.00;;;;;;;10.03;88.83;102138.31;10257957;28;20037;-69
2021/10/11 01:58:42;;;;;;;66.90;41.92;;;;;;;9.92;90.66;102139.44;10255601;28;20120;-69
2021/10/11 02:03:38;;;;;;;63.60;41.05;;;;;;;10.00;89.96;102141.59;10253904;28;20481;-69
2021/10/11 02:08:35;;;;;;;65.40;41.00;;;;;;;10.03;90.32;102136.41;10272892;28;20064;-68
2021/10/11 02:13:31;;;;;;;57.60;37.63;;;;;;;10.14;89.76;102120.75;10260822;28;20620;-70
2021/10/11 02:18:28;;;;;;;65.57;41.08;;;;;;;10.13;90.03;102126.53;10270356;28;20072;-70
2021/10/11 02:23:24;;;;;;;56.05;36.70;;;;;;;10.17;90.26;102119.41;10272597;28;20065;-70
2021/10/11 02:28:21;;;;;;;61.10;38.33;;;;;;;10.15;90.46;102122.41;10264765;28;20664;-68
2021/10/11 02:33:18;;;;;;;65.78;41.75;;;;;;;10.16;90.43;102117.75;10258660;28;20064;-68
2021/10/11 02:38:14;;;;;;;65.38;41.83;;;;;;;10.16;90.09;102102.16;10247534;28;20045;-69
2021/10/11 02:43:11;;;;;;;61.17;37.40;;;;;;;10.20;90.59;102108.72;10255969;28;20072;-69
2021/10/11 02:48:07;;;;;;;62.83;41.17;;;;;;;10.21;90.20;102104.88;10254129;28;20049;-69
2021/10/11 02:53:04;;;;;;;56.97;36.38;;;;;;;10.19;90.67;102101.63;10239261;28;20059;-69
2021/10/11 02:58:00;;;;;;;64.68;39.42;;;;;;;10.16;90.90;102107.63;10262513;28;20110;-68
2021/10/11 03:02:57;;;;;;;63.95;41.65;;;;;;;10.13;91.53;102107.38;10271381;28;20505;-70
2021/10/11 03:07:53;;;;;;;67.03;39.25;;;;;;;10.06;91.86;102104.97;10260133;28;20057;-69
2021/10/11 03:12:50;;;;;;;66.60;42.75;;;;;;;10.05;91.34;102106.06;10277814;28;20431;-70
2021/10/11 03:17:46;;;;;;;68.95;40.22;;;;;;;10.00;91.57;102103.34;10255096;28;20597;-68
2021/10/11 03:22:43;;;;;;;64.80;39.40;;;;;;;10.01;92.07;102099.53;10264097;28;20053;-68
2021/10/11 03:27:39;;;;;;;68.60;41.13;;;;;;;9.94;92.86;102102.56;10254927;28;20046;-68
2021/10/11 03:32:36;;;;;;;67.45;42.42;;;;;;;9.96;92.42;102091.34;10268717;28;20051;-68
2021/10/11 03:37:32;;;;;;;69.70;42.95;;;;;;;9.93;92.50;102091.88;10254263;28;20079;-69
2021/10/11 03:42:28;;;;;;;66.60;41.92;;;;;;;9.93;93.01;102080.97;10241314;28;20419;-69
2021/10/11 03:47:25;;;;;;;65.18;40.60;;;;;;;9.89;92.45;102084.25;10255398;28;20568;-69
2021/10/11 03:52:21;;;;;;;65.97;40.03;;;;;;;9.86;92.07;102087.56;10278377;28;20160;-69
2021/10/11 03:57:18;;;;;;;66.22;41.80;;;;;;;9.82;91.79;102086.47;10254625;28;20041;-69
2021/10/11 04:02:15;;;;;;;62.28;39.40;;;;;;;9.82;91.57;102075.56;10277245;28;20084;-69
2021/10/11 04:07:13;;;;;;;62.40;37.15;;;;;;;9.85;91.93;102076.91;10255988;28;20118;-69
2021/10/11 04:12:18;;;;;;;60.65;40.15;;;;;;;9.84;92.17;102078.81;10252722;28;20053;-68
2021/10/11 04:17:14;;;;;;;73.20;42.78;;;;;;;9.88;92.87;102079.88;10277483;28;20498;-68
2021/10/11 04:22:13;;;;;;;67.25;41.95;;;;;;;9.88;92.75;102079.88;10279964;28;20060;-68
2021/10/11 04:27:10;;;;;;;62.38;36.53;;;;;;;9.94;93.73;102082.63;10279498;28;20068;-69
2021/10/11 04:32:07;;;;;;;67.07;40.30;;;;;;;10.00;94.42;102076.84;10273014;28;20060;-69
2021/10/11 04:37:04;;;;;;;67.55;40.75;;;;;;;10.02;94.22;102084.75;10263783;28;20041;-71
2021/10/11 04:42:00;;;;;;;64.88;40.03;;;;;;;10.10;94.17;102103.31;10252203;28;20570;-71
2021/10/11 04:46:57;;;;;;;65.55;38.55;;;;;;;10.10;93.88;102114.25;10258470;28;20514;-69
2021/10/11 04:51:53;;;;;;;67.13;38.58;;;;;;;10.05;94.62;102111.53;10256306;28;20498;-72
2021/10/11 04:56:51;;;;;;;65.70;38.90;;;;;;;10.06;95.95;102103.03;10263921;28;20106;-73
2021/10/11 05:01:48;;;;;;;66.03;37.15;;;;;;;10.14;95.92;102109.81;10265709;28;20068;-74
2021/10/11 05:06:44;;;;;;;53.80;32.40;;;;;;;10.19;96.34;102101.63;10260185;28;20059;-74
2021/10/11 05:11:41;;;;;;;46.95;26.98;;;;;;;10.22;96.18;102105.69;10262199;28;20045;-73
2021/10/11 05:16:37;;;;;;;53.92;30.40;;;;;;;10.28;95.60;102101.81;10264715;28;20053;-73
2021/10/11 05:21:34;;;;;;;47.70;29.63;;;;;;;10.30;96.74;102111.44;10251085;28;20259;-73
2021/10/11 05:26:31;;;;;;;49.63;27.70;;;;;;;10.34;97.02;102110.88;10251982;28;20079;-74
2021/10/11 05:31:27;;;;;;;47.25;28.25;;;;;;;10.33;96.96;102112.78;10255286;28;20068;-71
2021/10/11 05:36:24;;;;;;;48.28;26.25;;;;;;;10.32;97.28;102111.94;10263877;28;20079;-73
2021/10/11 05:41:21;;;;;;;59.65;28.40;;;;;;;10.28;96.86;102105.44;10285069;28;20064;-72
2021/10/11 05:46:18;;;;;;;49.30;26.88;;;;;;;10.26;96.59;102107.59;10283923;28;20080;-71
2021/10/11 05:51:25;;;;;;;50.65;25.90;;;;;;;10.21;96.78;102114.97;10283952;28;20065;-72
2021/10/11 05:56:21;;;;;;;43.15;25.73;;;;;;;10.18;96.44;102110.09;10288759;28;20065;-72
2021/10/11 06:01:18;;;;;;;55.72;28.15;;;;;;;10.18;97.01;102126.50;10277935;28;20061;-70
2021/10/11 06:06:15;;;;;;;49.03;25.63;;;;;;;10.17;97.37;102120.22;10277709;28;20351;-73
2021/10/11 06:11:17;;;;;;;46.72;26.05;;;;;;;10.18;96.93;102121.84;10262960;28;20060;-71
2021/10/11 06:16:14;;;;;;;47.15;26.63;;;;;;;10.21;96.98;102120.44;10257199;28;20096;-71
2021/10/11 06:21:11;;;;;;;47.15;28.08;;;;;;;10.20;97.56;102119.63;10241271;28;20092;-71
2021/10/11 06:26:07;;;;;;;54.38;27.17;;;;;;;10.18;97.63;102121.84;10230792;28;20068;-71
2021/10/11 06:31:05;;;;;;;58.67;29.58;;;;;;;10.16;97.88;102126.75;10218990;28;20476;-72
2021/10/11 06:36:01;;;;;;;50.92;28.77;;;;;;;10.18;97.96;102121.84;10232192;28;20064;-71
2021/10/11 06:40:57;;;;;;;56.88;30.08;;;;;;;10.13;98.10;102119.13;10268863;28;20487;-71
2021/10/11 06:45:54;;;;;;;53.75;28.88;;;;;;;10.12;98.68;102133.91;10260538;28;20449;-71
2021/10/11 06:50:50;;;;;;;51.58;28.40;;;;;;;10.11;99.13;102144.00;10244316;28;20517;-72
2021/10/11 06:55:47;;;;;;;76.78;31.95;;;;;;;10.10;99.45;102157.97;10252988;28;20114;-72
2021/10/11 07:00:43;;;;;;;50.17;28.45;;;;;;;10.26;99.37;102158.72;10264063;28;20049;-72
2021/10/11 07:05:40;;;;;;;50.88;27.63;;;;;;;10.30;99.25;102157.91;10245097;28;20057;-71
2021/10/11 07:10:37;;;;;;;53.42;28.55;;;;;;;10.26;99.20;102162.25;10245706;28;20430;-72
2021/10/11 07:15:34;;;;;;;59.50;29.90;;;;;;;10.31;98.62;102159.53;10281554;28;20855;-72
2021/10/11 07:20:31;;;;;;;52.55;28.35;;;;;;;10.30;98.66;102157.91;10266972;28;20071;-72
2021/10/11 07:25:28;;;;;;;51.20;28.83;;;;;;;10.34;98.96;102168.28;10240775;28;20076;-71
2021/10/11 07:30:25;;;;;;;49.15;25.23;;;;;;;10.38;98.94;102158.41;10251884;28;20061;-72
2021/10/11 07:35:21;;;;;;;44.00;23.75;;;;;;;10.47;98.87;102167.66;10262247;28;20052;-72
2021/10/11 07:40:18;;;;;;;42.28;22.02;;;;;;;10.54;99.77;102157.25;10260935;28;20099;-71
2021/10/11 07:45:15;;;;;;;35.47;20.05;;;;;;;10.63;99.16;102161.00;10267921;28;20045;-72
2021/10/11 07:50:12;;;;;;;38.72;20.35;;;;;;;10.68;98.87;102158.25;10277847;28;20094;-72
2021/10/11 07:55:08;;;;;;;30.70;17.25;;;;;;;10.79;97.77;102153.53;10265322;28;20454;-72
2021/10/11 08:00:07;;;;;;;27.58;15.73;;;;;;;10.88;98.37;102156.44;10273777;28;20044;-71
2021/10/11 08:05:04;;;;;;;30.77;15.00;;;;;;;10.93;97.78;102154.50;10253247;28;20041;-72
2021/10/11 08:10:02;;;;;;;27.52;13.43;;;;;;;11.04;96.73;102160.72;10257672;28;20077;-72
2021/10/11 08:14:58;;;;;;;22.65;11.57;;;;;;;11.13;96.52;102164.47;10256395;28;20038;-72
2021/10/11 08:19:55;;;;;;;26.58;10.98;;;;;;;11.19;95.28;102161.72;10239727;28;20542;-72
2021/10/11 08:24:52;;;;;;;25.15;10.43;;;;;;;11.27;94.31;102163.81;10261084;28;20471;-72
2021/10/11 08:29:52;;;;;;;22.67;9.55;;;;;;;11.39;93.54;102161.50;10256175;28;20127;-72
2021/10/11 08:34:50;;;;;;;17.60;8.15;;;;;;;11.54;92.55;102164.13;10259549;28;20049;-73
2021/10/11 08:39:46;;;;;;;18.88;8.55;;;;;;;11.78;91.63;102157.84;10263717;28;20041;-71
2021/10/11 08:44:44;;;;;;;15.45;6.25;;;;;;;12.07;89.17;102159.72;10254675;28;20076;-72
2021/10/11 08:49:42;;;;;;;16.40;6.68;;;;;;;12.09;87.94;102154.78;10257509;28;20045;-72
2021/10/11 08:54:39;;;;;;;17.58;5.97;;;;;;;12.16;88.32;102157.97;10240320;28;20073;-72
2021/10/11 08:59:35;;;;;;;14.95;5.30;;;;;;;12.18;87.62;102161.22;10258705;28;20129;-74
2021/10/11 09:04:32;;;;;;;15.18;5.80;;;;;;;12.19;87.38;102151.91;10267386;28;20045;-73
2021/10/11 09:09:28;;;;;;;15.25;5.95;;;;;;;12.24;87.73;102149.09;10262795;28;20041;-73
2021/10/11 09:14:27;;;;;;;16.55;5.85;;;;;;;12.18;87.24;102156.59;10262038;28;20120;-73
2021/10/11 09:19:35;;;;;;;11.45;3.75;;;;;;;12.27;87.28;102153.19;10259744;28;20470;-73
2021/10/11 09:24:34;;;;;;;14.25;3.33;;;;;;;12.26;83.71;102140.59;10262304;28;20099;-73
2021/10/11 09:29:33;;;;;;;13.52;3.08;;;;;;;12.32;83.41;102140.22;10252199;28;20053;-73
2021/10/11 09:34:32;;;;;;;13.05;2.75;;;;;;;12.44;83.51;102142.53;10261633;28;20042;-73
2021/10/11 09:39:30;;;;;;;13.02;2.67;;;;;;;12.53;83.17;102145.41;10242897;28;20045;-73
2021/10/11 09:44:27;;;;;;;12.05;2.90;;;;;;;12.69;82.13;102137.78;10234398;28;20532;-72
2021/10/11 09:49:45;;;;;;;16.52;2.15;;;;;;;12.71;77.57;102130.06;10248703;28;20069;-73
2021/10/11 09:54:41;;;;;;;16.05;2.05;;;;;;;12.74;75.85;102122.06;10234197;28;20042;-73
2021/10/11 09:59:39;;;;;;;9.10;1.80;;;;;;;12.82;75.22;102121.38;10233302;28;20053;-72
2021/10/11 10:04:40;;;;;;;11.18;1.52;;;;;;;13.03;75.23;102121.03;10231239;28;20057;-73
2021/10/11 10:09:47;;;;;;;12.63;2.70;;;;;;;13.17;73.40;102110.91;10251410;28;20068;-73
2021/10/11 10:14:43;;;;;;;11.63;1.70;;;;;;;13.26;73.27;102114.59;10240676;28;20456;-73
2021/10/11 10:19:40;;;;;;;12.30;2.13;;;;;;;13.37;73.52;102111.72;10247769;28;20565;-73
2021/10/11 10:24:38;;;;;;;13.82;2.63;;;;;;;13.47;72.52;102103.28;10271863;28;20061;-73
2021/10/11 10:29:45;;;;;;;10.27;2.50;;;;;;;13.47;71.66;102097.78;10262358;28;20041;-72
2021/10/11 10:34:45;;;;;;;8.65;1.77;;;;;;;13.40;71.65;102092.69;10249360;28;20486;-71
2021/10/11 10:39:49;;;;;;;8.45;1.75;;;;;;;13.43;71.66;102085.75;10267733;28;20076;-70
2021/10/11 10:44:46;;;;;;;11.38;1.50;;;;;;;13.32;70.32;102078.81;10267285;28;20689;-70
2021/10/11 10:49:47;;;;;;;11.35;1.90;;;;;;;13.22;73.37;102094.34;10261911;28;20063;-71
2021/10/11 10:54:58;;;;;;;9.63;1.58;;;;;;;13.09;76.51;102097.06;10270367;28;20691;-71
2021/10/11 11:00:13;;;;;;;7.43;1.48;;;;;;;12.94;77.37;102106.38;10262389;28;20145;-74
2021/10/11 11:05:09;;;;;;;10.13;1.77;;;;;;;12.85;78.75;102098.00;10266103;28;20053;-72
2021/10/11 11:10:14;;;;;;;10.80;1.73;;;;;;;13.01;79.77;102091.13;10264509;28;20119;-70
2021/10/11 11:15:39;;;;;;;8.73;1.42;;;;;;;13.16;79.10;102086.50;10256389;28;20191;-71
2021/10/11 11:20:38;;;;;;;7.25;1.15;;;;;;;13.39;78.57;102081.97;10256230;28;20048;-72
2021/10/11 11:25:55;;;;;;;;;;;;;;;;;;;;;
2021/10/11 11:31:24;;;;;;;7.13;1.63;;;;;;;13.65;76.43;102082.31;10257619;28;20040;-71
2021/10/11 11:36:33;;;;;;;9.63;2.05;;;;;;;13.71;75.43;102074.78;10267967;28;20056;-70
2021/10/11 11:41:36;;;;;;;6.93;1.23;;;;;;;13.80;72.10;102072.94;10258613;28;20049;-72
2021/10/11 11:46:32;;;;;;;11.45;1.40;;;;;;;13.78;72.94;102053.19;10260071;28;20055;-72
2021/10/11 11:52:11;;;;;;;8.18;1.45;;;;;;;13.73;68.30;102067.03;10259589;28;20047;-72
2021/10/11 11:57:21;;;;;;;7.00;1.40;;;;;;;14.02;63.76;102042.78;10248147;28;20453;-69
2021/10/11 12:02:45;;;;;;;6.00;0.97;;;;;;;14.21;63.56;102030.81;10271399;28;20045;-72
2021/10/11 12:07:44;;;;;;;7.53;0.90;;;;;;;14.67;62.39;102025.03;10259265;28;20863;-72
2021/10/11 12:12:41;;;;;;;5.53;0.80;;;;;;;14.92;61.07;102031.84;10262499;28;20072;-71
2021/10/11 12:17:37;;;;;;;7.75;1.20;;;;;;;15.06;61.54;102019.91;10258488;28;20405;-72
2021/10/11 12:22:58;;;;;;;9.98;1.50;;;;;;;15.24;61.74;102021.59;10270026;28;21967;-72
2021/10/11 12:27:55;;;;;;;8.65;1.20;;;;;;;14.55;63.49;102070.75;10255930;28;20037;-71
2021/10/11 12:33:01;;;;;;;5.40;0.95;;;;;;;13.52;69.09;102052.91;10266003;28;20033;-70
2021/10/11 12:38:20;;;;;;;4.78;0.80;;;;;;;13.06;71.69;102049.03;10264901;28;20045;-71
2021/10/11 12:43:29;;;;;;;3.65;0.60;;;;;;;13.04;75.35;102037.56;10261807;28;20053;-72
2021/10/11 12:48:30;;;;;;;4.60;0.77;;;;;;;13.67;73.10;102036.91;10262675;28;20057;-71
2021/10/11 12:54:05;;;;;;;8.70;1.20;;;;;;;14.11;71.52;102034.63;10265541;28;20044;-71
2021/10/11 13:05:28;;;;;;;7.07;1.45;;;;;;;14.41;69.28;102015.75;10252548;28;20037;-72
2021/10/11 13:10:54;;;;;;;8.00;1.15;;;;;;;14.50;69.52;102013.88;10255897;28;20400;-72
2021/10/11 13:15:51;;;;;;;9.00;1.42;;;;;;;14.78;69.19;102003.56;10244464;28;20048;-72
2021/10/11 13:20:50;;;;;;;8.43;1.70;;;;;;;15.01;68.10;102011.78;10231687;28;20042;-70
2021/10/11 13:25:52;;;;;;;8.27;1.85;;;;;;;14.83;69.32;101992.44;10259110;28;20140;-72
2021/10/11 14:30:44;;;;;;;12.52;1.40;;;;;;;14.33;66.15;101976.03;10259295;28;20045;-72
2021/10/11 16:02:36;;;;;;;9.77;2.55;;;;;;;12.93;73.16;101994.94;10270391;28;20044;-72
2021/10/11 16:07:33;;;;;;;9.30;2.13;;;;;;;12.90;72.46;101995.53;10261347;28;20049;-72
2021/10/11 16:12:30;;;;;;;7.97;1.80;;;;;;;12.79;71.82;101997.66;10259845;28;20053;-72
2021/10/11 16:17:27;;;;;;;11.30;2.50;;;;;;;12.73;71.32;101990.63;10244310;28;20045;-70
2021/10/11 16:22:24;;;;;;;12.38;2.20;;;;;;;12.62;71.61;102001.78;10256111;28;20127;-71
2021/10/11 16:27:20;;;;;;;9.57;1.63;;;;;;;12.48;72.13;102000.09;10260610;28;20495;-72
2021/10/11 16:32:17;;;;;;;15.95;2.47;;;;;;;12.29;72.53;102003.69;10263730;28;20045;-72
2021/10/11 16:37:13;;;;;;;10.27;1.63;;;;;;;12.22;72.60;102008.72;10256216;28;20045;-71
2021/10/11 16:42:10;;;;;;;17.67;2.67;;;;;;;12.20;72.81;102010.94;10241838;28;20126;-72
2021/10/11 16:47:07;;;;;;;8.68;2.05;;;;;;;12.06;73.79;101999.91;10247843;28;20072;-71
2021/10/11 16:52:03;;;;;;;15.23;2.30;;;;;;;11.86;74.42;102006.50;10247954;28;21833;-72
2021/10/11 16:57:01;;;;;;;11.05;1.60;;;;;;;11.86;74.34;102003.75;10247531;28;20449;-71
2021/10/11 17:01:58;;;;;;;17.20;2.70;;;;;;;11.75;74.71;102005.00;10252458;28;20102;-72
2021/10/11 17:06:55;;;;;;;13.30;2.65;;;;;;;11.68;74.83;102005.34;10265606;28;20102;-72
2021/10/11 17:11:52;;;;;;;15.95;2.20;;;;;;;11.51;75.12;102011.31;10263270;28;20050;-72
2021/10/11 17:16:50;;;;;;;14.30;3.03;;;;;;;11.45;75.35;102009.75;10269098;28;20518;-71
2021/10/11 17:21:47;;;;;;;18.98;3.28;;;;;;;11.44;74.64;102005.38;10255290;28;20450;-71
2021/10/11 17:26:44;;;;;;;16.95;2.88;;;;;;;11.35;75.63;101998.91;10250946;28;20049;-72
2021/10/11 17:31:41;;;;;;;16.30;3.22;;;;;;;11.33;75.52;101999.19;10248087;28;20056;-71
2021/10/11 17:36:38;;;;;;;16.17;2.60;;;;;;;11.32;75.55;101991.25;10250257;28;20049;-72
2021/10/11 17:41:34;;;;;;;21.88;4.43;;;;;;;11.38;75.82;101996.41;10248681;28;20110;-72
2021/10/11 17:46:31;;;;;;;14.23;3.38;;;;;;;11.30;76.07;101999.78;10248419;28;20079;-72
2021/10/11 17:51:28;;;;;;;18.42;3.10;;;;;;;11.15;76.30;101998.00;10248402;28;20563;-71
2021/10/11 17:56:25;;;;;;;15.32;4.80;;;;;;;11.13;76.46;102000.22;10264317;28;20044;-72
2021/10/11 18:01:24;;;;;;;22.80;3.67;;;;;;;11.07;76.17;101995.94;10263943;28;20067;-73
2021/10/11 18:06:20;;;;;;;22.02;3.88;;;;;;;10.97;76.52;102001.50;10257810;28;20045;-72
2021/10/11 18:11:20;;;;;;;17.88;3.10;;;;;;;11.02;76.76;101987.75;10257262;28;20072;-73
2021/10/11 18:16:17;;;;;;;13.57;2.67;;;;;;;10.94;76.81;102002.09;10256512;28;20468;-71
2021/10/11 18:21:13;;;;;;;14.48;2.70;;;;;;;10.87;75.66;101990.66;10253903;28;20083;-72
2021/10/11 18:26:11;;;;;;;14.88;3.05;;;;;;;10.98;74.77;101991.34;10262374;28;20052;-73
2021/10/11 18:31:09;;;;;;;19.30;3.17;;;;;;;10.87;74.76;101991.47;10268325;28;20045;-72
2021/10/11 18:36:06;;;;;;;10.07;2.47;;;;;;;10.88;75.63;101992.28;10258256;28;20553;-72
2021/10/11 18:41:04;;;;;;;20.75;3.40;;;;;;;10.86;75.99;101995.31;10262794;28;20056;-72
2021/10/11 18:46:00;;;;;;;10.70;2.33;;;;;;;10.85;76.38;101984.66;10258989;28;20107;-72
2021/10/11 18:50:57;;;;;;;10.27;1.73;;;;;;;10.93;77.20;101990.31;10253659;28;20509;-73
2021/10/11 18:55:54;;;;;;;18.05;3.15;;;;;;;10.79;76.45;101983.06;10245793;28;20065;-73
2021/10/11 19:00:51;;;;;;;13.65;2.58;;;;;;;10.81;76.56;101994.53;10244822;28;20132;-73
2021/10/11 19:05:47;;;;;;;13.57;2.53;;;;;;;10.80;76.19;101979.25;10264515;28;20073;-72
2021/10/11 19:10:45;;;;;;;11.45;2.17;;;;;;;10.83;74.35;101979.47;10261268;28;20060;-73
2021/10/11 19:15:43;;;;;;;12.70;2.33;;;;;;;10.84;73.65;101980.31;10266988;28;20037;-73
2021/10/11 19:20:42;;;;;;;13.90;2.90;;;;;;;10.82;71.80;101972.38;10247040;28;20103;-73
2021/10/11 19:25:41;;;;;;;12.90;2.42;;;;;;;10.65;71.82;101967.34;10242744;28;20495;-72
2021/10/11 19:30:41;;;;;;;14.18;2.22;;;;;;;10.58;73.13;101972.31;10245757;28;20146;-72
2021/10/11 19:35:38;;;;;;;16.88;3.47;;;;;;;10.52;73.87;101966.06;10246081;28;20391;-71
2021/10/11 19:40:38;;;;;;;11.38;2.50;;;;;;;10.56;75.20;101973.69;10249765;28;20045;-73
2021/10/11 19:45:35;;;;;;;13.73;2.03;;;;;;;10.57;75.11;101980.81;10252651;28;20522;-72
2021/10/11 19:50:32;;;;;;;19.30;2.60;;;;;;;10.54;76.10;101976.75;10243242;28;20413;-72
2021/10/11 19:55:29;;;;;;;13.48;2.55;;;;;;;10.56;77.51;101969.06;10253325;28;20068;-72
2021/10/11 20:00:26;;;;;;;19.02;3.72;;;;;;;10.44;78.81;101965.88;10251367;28;20526;-73
2021/10/11 20:05:23;;;;;;;16.17;2.33;;;;;;;10.38;79.57;101973.31;10236104;28;20042;-71
2021/10/11 20:10:20;;;;;;;15.52;3.20;;;;;;;10.29;80.17;101970.38;10250700;28;20102;-73
2021/10/11 20:15:17;;;;;;;15.98;3.47;;;;;;;10.45;79.64;101970.25;10253092;28;20411;-73
2021/10/11 20:20:14;;;;;;;15.30;1.92;;;;;;;10.45;80.77;101962.06;10255312;28;20531;-71
2021/10/11 20:25:12;;;;;;;12.68;2.13;;;;;;;10.52;80.31;101973.47;10273643;28;20091;-69
2021/10/11 20:30:10;;;;;;;9.55;2.20;;;;;;;10.56;80.80;101963.59;10274084;28;20174;-69
2021/10/11 20:35:07;;;;;;;14.07;2.50;;;;;;;10.53;80.61;101959.50;10261938;28;20046;-70
2021/10/11 20:40:05;;;;;;;10.90;1.65;;;;;;;10.66;80.37;101968.97;10246351;28;20049;-70
2021/10/11 20:45:01;;;;;;;9.18;1.98;;;;;;;10.63;80.60;101953.13;10248179;28;20073;-70
2021/10/11 20:49:58;;;;;;;16.50;2.05;;;;;;;10.66;80.28;101949.00;10245756;28;20065;-69
2021/10/11 20:54:54;;;;;;;9.57;1.60;;;;;;;10.62;80.37;101940.53;10244158;28;20068;-70
2021/10/11 20:59:51;;;;;;;12.45;2.10;;;;;;;10.56;79.89;101941.72;10253714;28;20045;-71
2021/10/11 21:04:47;;;;;;;13.80;1.73;;;;;;;10.38;80.33;101926.03;10256914;28;20091;-69
2021/10/11 21:09:44;;;;;;;9.55;1.55;;;;;;;10.39;80.20;101919.44;10246696;28;20076;-70
2021/10/11 21:14:40;;;;;;;18.05;2.33;;;;;;;10.32;80.83;101920.56;10257953;28;20510;-69
2021/10/11 21:19:37;;;;;;;9.35;1.63;;;;;;;10.31;80.45;101918.97;10257348;28;20082;-71
2021/10/11 21:24:34;;;;;;;8.32;1.55;;;;;;;10.24;80.78;101918.44;10259310;28;20158;-70
2021/10/11 21:29:30;;;;;;;11.63;1.38;;;;;;;10.18;81.64;101918.78;10255640;28;20079;-71
2021/10/11 21:34:27;;;;;;;9.02;1.30;;;;;;;10.19;81.37;101909.44;10266571;28;20563;-69
2021/10/11 21:39:23;;;;;;;9.13;1.35;;;;;;;10.11;82.61;101906.25;10253165;28;20159;-69
2021/10/11 21:44:20;;;;;;;13.30;1.55;;;;;;;10.07;82.08;101913.41;10252028;28;20072;-69
2021/10/11 21:49:16;;;;;;;11.23;2.00;;;;;;;10.02;83.06;101905.22;10249663;28;20069;-69
2021/10/11 21:54:13;;;;;;;14.70;1.85;;;;;;;9.93;83.35;101892.44;10254748;28;20068;-69
2021/10/11 21:59:09;;;;;;;6.03;1.42;;;;;;;9.78;83.48;101894.19;10263180;28;20080;-69
2021/10/11 22:04:06;;;;;;;12.18;2.20;;;;;;;9.77;83.29;101876.19;10258138;28;20099;-70
2021/10/11 22:09:02;;;;;;;10.07;1.70;;;;;;;9.82;83.26;101872.59;10247211;28;20555;-68
2021/10/11 22:14:00;;;;;;;11.07;1.63;;;;;;;9.77;82.81;101869.88;10252858;28;20535;-69
2021/10/11 22:18:56;;;;;;;14.95;2.38;;;;;;;9.73;82.95;101869.66;10254301;28;20114;-68
2021/10/11 22:23:56;;;;;;;13.68;1.73;;;;;;;9.52;83.75;101865.44;10258014;28;20042;-69
2021/10/11 22:28:52;;;;;;;10.43;1.75;;;;;;;9.43;84.19;101876.94;10257538;28;20076;-69
2021/10/11 22:33:49;;;;;;;9.02;1.98;;;;;;;9.50;84.42;101864.91;10261705;28;20128;-69
2021/10/11 22:38:45;;;;;;;10.95;1.52;;;;;;;9.31;85.07;101851.91;10262062;28;20061;-69
2021/10/11 22:43:42;;;;;;;7.63;1.60;;;;;;;9.35;85.33;101836.59;10263421;28;20065;-70
2021/10/11 22:48:39;;;;;;;12.30;1.83;;;;;;;9.35;85.09;101831.13;10258890;28;20071;-70
2021/10/11 22:53:35;;;;;;;13.95;2.20;;;;;;;9.34;85.64;101824.03;10269223;28;20090;-70
2021/10/11 22:58:32;;;;;;;9.75;1.63;;;;;;;9.33;84.74;101816.97;10255513;28;20081;-71
2021/10/11 23:03:28;;;;;;;10.57;1.50;;;;;;;9.39;85.59;101815.81;10259835;28;20475;-70
2021/10/11 23:08:25;;;;;;;10.80;1.60;;;;;;;9.40;85.76;101806.53;10247720;28;20041;-70
2021/10/11 23:13:22;;;;;;;12.88;1.50;;;;;;;9.44;84.79;101807.56;10268615;28;20071;-70
2021/10/11 23:18:18;;;;;;;14.63;1.88;;;;;;;9.38;85.86;101797.81;10267234;28;20091;-71
2021/10/11 23:23:14;;;;;;;11.95;1.70;;;;;;;9.42;86.00;101790.69;10260648;28;20510;-69
2021/10/11 23:28:11;;;;;;;12.52;1.88;;;;;;;9.46;86.87;101788.19;10261472;28;20072;-70
2021/10/11 23:33:07;;;;;;;9.68;1.80;;;;;;;9.50;86.48;101772.06;10259605;28;20083;-71
2021/10/11 23:38:04;;;;;;;9.18;1.83;;;;;;;9.51;86.19;101773.69;10266768;28;20091;-71
2021/10/11 23:43:01;;;;;;;11.95;2.00;;;;;;;9.50;87.21;101767.44;10265182;28;20540;-68
2021/10/11 23:47:58;;;;;;;7.40;1.40;;;;;;;9.58;86.86;101752.34;10263967;28;20044;-70
2021/10/11 23:52:54;;;;;;;12.20;1.30;;;;;;;9.52;87.02;101753.50;10261483;28;20561;-71
2021/10/11 23:57:51;;;;;;;11.63;1.92;;;;;;;9.45;89.38;101738.25;10266269;28;20045;-71
